Blue Oak Ranch Reserve, California Weather observations

Data are for 10 minute period ending at time listed.
 Day   Time   Solar   Ave.   Ave.  Ave.  Vector  Max.   Baro.   Total    
  of    of     Rad.   Air    Rel.  Wind   Wind   Wind  Press.  Precip.   
Year   Day            Temp.  Hum.  Speed  Dir.   Gust                    
2014   (PST)  Kw/m2    F      %     mph   deg.    mph    mb.     in.     
-------------------------------------------------------------------------
 203   20:10   0.00   59.9    82    3.7   293     7.8   951.1    0.00 
 203   20:20   0.00   60.0    82    4.0   290     7.3   951.3    0.00 
 203   20:30   0.00   60.3    81    4.2   298     6.2   951.5    0.00 
 203   20:40   0.00   60.5    80    4.7   299     8.0   951.6    0.00 
 203   20:50   0.00   60.5    79    4.6   299     7.3   951.7    0.00 
 203   21:00   0.00   60.4    79    3.8   308     5.5   951.8    0.00 
 203   21:10   0.00   59.8    80    3.3   296     4.7   951.8    0.00 
 203   21:20   0.00   58.7    82    3.1   319     5.3   951.9    0.00 
 203   21:30   0.00   57.9    83    2.5   331     3.9   951.9    0.00 
 203   21:40   0.00   57.1    84    1.2   336     3.7   951.9    0.00 
 203   21:50   0.00   56.2    84    0.9    22     2.1   951.9    0.00 
 203   22:00   0.00   55.3    86    0.5    44     2.1   951.9    0.00 
 203   22:10   0.00   54.8    88    0.3   353     1.8   952.0    0.00 
 203   22:20   0.00   54.4    88    0.3   273     1.1   952.0    0.00 
 203   22:30   0.00   53.8    88    0.1    27     0.8   952.2    0.00 
 203   22:40   0.00   53.2    89    0.1    30     0.7   952.2    0.00 
 203   22:50   0.00   52.8    89    0.4    67     1.8   952.2    0.00 
 203   23:00   0.00   52.5    90    0.5    56     2.0   952.3    0.00 
 203   23:10   0.00   52.2    91    0.6    36     1.5   952.4    0.00 
 203   23:20   0.00   51.8    91    0.2    75     0.9   952.4    0.00 
 203   23:30   0.00   51.6    91    1.3   294     2.5   952.3    0.00 
 203   23:40   0.00   51.2    92    0.3   303     1.9   952.2    0.00 
 203   23:50   0.00   51.1    93    0.0   151     0.7   952.3    0.00 
 204    0:00   0.00   51.0    93    0.1   290     1.0   952.3    0.00 
 204    0:10   0.00   50.4    93    1.0   301     3.0   952.3    0.00 
 204    0:20   0.00   50.6    94    1.9   306     3.7   952.3    0.00 
 204    0:30   0.00   50.5    94    0.9    87     1.7   952.3    0.00 
 204    0:40   0.00   50.2    94    0.2   321     1.6   952.4    0.00 
 204    0:50   0.00   49.7    94    0.7   298     2.0   952.3    0.00 
 204    1:00   0.00   50.0    94    0.6   285     3.2   952.3    0.00 
 204    1:10   0.00   49.3    94    1.5    16     3.0   952.3    0.00 
 204    1:20   0.00   50.0    94    0.0     0     0.0   952.4    0.00 
 204    1:30   0.00   49.6    94    0.2    30     1.2   952.3    0.00 
 204    1:40   0.00   49.7    94    0.9   315     2.7   952.2    0.00 
 204    1:50   0.00   49.5    94    1.9   299     3.6   952.2    0.00 
 204    2:00   0.00   50.3    95    1.2   336     2.3   952.1    0.00 
 204    2:10   0.00   51.7    95    2.2   349     4.4   952.1    0.00 
 204    2:20   0.00   52.8    94    2.5   350     5.9   952.0    0.00 
 204    2:30   0.00   52.3    92    2.2   320     3.5   952.1    0.00 
 204    2:40   0.00   52.2    92    0.9    34     2.1   952.0    0.00 
 204    2:50   0.00   51.7    92    0.1    42     0.8   952.0    0.00 
 204    3:00   0.00   51.4    93    0.8    12     1.8   952.1    0.00 
 204    3:10   0.00   51.2    93    0.5   298     1.8   952.2    0.00 
 204    3:20   0.00   50.8    93    0.4    35     1.2   952.1    0.00 
 204    3:30   0.00   50.6    94    0.4   299     1.4   952.2    0.00 
 204    3:40   0.00   50.1    94    0.0   260     0.6   952.1    0.00 
 204    3:50   0.00   50.2    94    0.1   274     1.1   952.1    0.00 
 204    4:00   0.00   49.8    94    0.3    52     1.6   952.1    0.00 
 204    4:10   0.00   49.9    94    0.1   253     0.6   952.1    0.00 
 204    4:20   0.00   49.6    94    0.1   258     1.2   952.2    0.00 
 204    4:30   0.00   49.5    95    0.1   269     1.0   952.2    0.00 
 204    4:40   0.00   49.6    95    0.1   283     0.9   952.2    0.00 
 204    4:50   0.00   49.4    95    0.6   282     1.5   952.2    0.00 
 204    5:00   0.01   49.4    95    1.0   303     2.1   952.4    0.00 
 204    5:10   0.01   49.5    95    1.0     7     2.6   952.4    0.00 
 204    5:20   0.01   49.8    95    0.6   328     2.1   952.5    0.00 
 204    5:30   0.01   50.0    95    2.3    13     3.9   952.5    0.00 
 204    5:40   0.01   50.0    95    2.5   339     3.7   952.6    0.00 
 204    5:50   0.02   51.0    95    0.9   324     2.8   952.7    0.00 
 204    6:00   0.03   51.2    95    1.7    36     3.7   952.7    0.00 
 204    6:10   0.03   51.6    95    1.2   345     2.9   952.8    0.00 
 204    6:20   0.14   53.4    95    1.3    28     4.0   952.8    0.00 
 204    6:30   0.19   56.8    92    0.9   314     2.7   952.7    0.00 
 204    6:40   0.22   59.8    79    1.7   327     3.7   952.7    0.00 
 204    6:50   0.25   62.3    72    2.0   316     5.0   952.7    0.00 
 204    7:00   0.28   63.4    69    2.4   299     4.9   952.6    0.00 
 204    7:10   0.32   63.9    68    3.8   304     6.4   952.6    0.00 
 204    7:20   0.35   63.8    67    3.9   308    10.2   952.7    0.00 
 204    7:30   0.37   64.2    66    5.2   306     9.9   952.9    0.00 
 204    7:40   0.40   64.3    65    6.2   292    10.7   953.0    0.00 
 204    7:50   0.43   64.5    65    6.9   294    11.8   953.1    0.00 
 204    8:00   0.46   65.0    64    7.2   290    10.7   953.2    0.00 
 204    8:10   0.49   65.3    63    7.3   286    10.2   953.2    0.00 
 204    8:20   0.52   66.1    61    8.1   288    10.8   953.4    0.00 
 204    8:30   0.55   66.2    61    7.4   295    10.6   953.5    0.00 
 204    8:40   0.57   67.4    58    6.1   281     9.6   953.5    0.00 
 204    8:50   0.60   68.6    56    5.3   282     9.3   953.5    0.00 
 204    9:00   0.63   69.3    56    4.1   275     8.0   953.6    0.00 
 204    9:10   0.65   69.3    56    6.3   277    11.2   953.8    0.00 
 204    9:20   0.68   68.9    56    3.3   302     8.0   953.8    0.00 
 204    9:30   0.70   69.7    56    5.9   237    12.7   953.8    0.00 
 204    9:40   0.72   69.3    57    7.4   262    13.5   953.7    0.00 
 204    9:50   0.74   69.9    56    6.1   269    14.0   953.7    0.00 
 204   10:00   0.76   70.9    54    6.6   280    11.6   953.8    0.00 
 204   10:10   0.78   71.5    53    6.3   289    12.6   953.8    0.00 
 204   10:20   0.80   71.4    54    7.1   280    11.8   953.7    0.00 
 204   10:30   0.82   71.9    53    5.5   292    10.4   953.7    0.00 
 204   10:40   0.83   72.7    53    7.0   270    11.8   953.7    0.00 
 204   10:50   0.84   73.3    52    7.0   286    12.1   953.7    0.00 
 204   11:00   0.85   73.4    52    6.2   270    13.4   953.7    0.00 
 204   11:10   0.86   73.6    51    7.3   272    12.4   953.7    0.00 
 204   11:20   0.88   72.9    52    7.7   294    12.9   953.6    0.00 
 204   11:30   0.88   73.4    51    7.3   284    12.9   953.5    0.00 
 204   11:40   0.89   73.9    50    6.7   281    12.2   953.4    0.00 
 204   11:50   0.89   74.3    49    6.9   293    13.1   953.4    0.00 
 204   12:00   0.90   74.4    48    7.3   290    14.0   953.3    0.00 
 204   12:10   0.72   74.7    48    6.9   280    12.9   953.2    0.00 
 204   12:20   0.90   75.7    47    6.9   282    15.0   953.2    0.00 
 204   12:30   0.90   75.2    47    7.7   287    13.5   953.1    0.00 
 204   12:40   0.90   75.6    46    7.5   280    13.4   953.1    0.00 
 204   12:50   0.90   75.8    45    7.2   287    14.9   953.1    0.00 
 204   13:00   0.86   77.4    43    6.7   277    11.8   952.9    0.00 
 204   13:10   0.89   77.9    42    8.2   288    14.2   952.8    0.00 
 204   13:20   0.88   77.8    42    6.9   288    13.1   952.7    0.00 
 204   13:30   0.87   78.1    41    7.1   284    13.2   952.6    0.00 
 204   13:40   0.86   77.7    42    8.8   297    13.6   952.6    0.00 
 204   13:50   0.84   77.9    44    9.0   289    18.6   952.5    0.00 
 204   14:00   0.83   78.6    44    7.2   287    14.0   952.4    0.00 
 204   14:10   0.82   78.0    44    6.9   284    13.7   952.3    0.00 
 204   14:20   0.80   77.9    45    7.7   274    13.6   952.1    0.00 
 204   14:30   0.78   78.2    44    8.3   273    12.6   952.0    0.00 
 204   14:40   0.76   78.4    44    7.7   277    14.0   952.0    0.00 
 204   14:50   0.74   79.3    42    7.1   286    14.3   951.9    0.00 
 204   15:00   0.72   78.1    43    8.7   301    13.2   951.8    0.00 
 204   15:10   0.70   78.2    43    7.2   296    13.5   951.7    0.00 
 204   15:20   0.68   78.6    41    8.3   298    14.4   951.7    0.00 
 204   15:30   0.65   78.4    40    7.9   288    13.2   951.7    0.00 
 204   15:40   0.63   78.7    39    7.0   293    11.8   951.6    0.00 
 204   15:50   0.60   78.7    40    7.4   286    12.9   951.7    0.00 
 204   16:00   0.57   78.6    42    8.4   273    14.2   951.6    0.00 
 204   16:10   0.54   78.0    43    5.6   283     9.9   951.6    0.00 
 204   16:20   0.51   78.4    43    6.0   293    11.0   951.5    0.00 
 204   16:30   0.48   78.3    42    6.2   288    11.0   951.4    0.00 
 204   16:40   0.46   78.3    41    6.6   284    10.8   951.4    0.00 
 204   16:50   0.42   77.6    42    8.6   290    13.2   951.4    0.00 
 204   17:00   0.39   76.6    43    7.8   285    11.5   951.3    0.00 
 204   17:10   0.36   76.7    43    7.7   282    11.8   951.3    0.00 
 204   17:20   0.33   76.8    41    6.9   273    11.6   951.2    0.00 
 204   17:30   0.30   76.7    41    6.2   269     9.8   951.2    0.00 
 204   17:40   0.27   76.9    38    5.2   284     8.4   951.2    0.00 
 204   17:50   0.24   76.8    40    5.4   274     9.0   951.2    0.00 
 204   18:00   0.21   76.1    44    4.9   263     9.3   951.2    0.00 
 204   18:10   0.18   74.4    51    5.5   246     9.2   951.2    0.00 
 204   18:20   0.15   72.7    54    4.5   252     7.5   951.1    0.00 
 204   18:30   0.12   71.9    55    3.8   241     7.0   951.1    0.00 
 204   18:40   0.10   70.7    58    4.1   233     7.2   951.1    0.00 
 204   18:50   0.07   69.5    60    3.3   234     6.6   951.1    0.00 
 204   19:00   0.05   68.9    60    1.0   237     4.0   951.0    0.00 
 204   19:10   0.02   67.9    62    2.8   239     4.9   951.0    0.00 
 204   19:20   0.01   65.4    66    0.9   264     3.6   951.0    0.00 
 204   19:30   0.01   63.6    71    2.6   274     5.0   950.9    0.00 
 204   19:40   0.00   62.3    74    0.8   264     4.0   950.7    0.00 
 204   19:50   0.00   61.1    71    0.3   293     1.6   950.6    0.00 
 204   20:00   0.00   60.3    73    1.0   294     2.0   950.5    0.00 

Return to Blue Oak Ranch Reserve graphs page.


Western Regional Climate Center,wrcc@dri.edu